sensor_id;sensor_type;location;lat;lon;timestamp;P1;durP1;ratioP1;P2;durP2;ratioP2
78508;SDS011;67802;50.846;7.958;2023-04-21T00:00:50;4.70;;;2.25;;
78508;SDS011;67802;50.846;7.958;2023-04-21T00:03:16;4.93;;;2.10;;
78508;SDS011;67802;50.846;7.958;2023-04-21T00:05:43;4.10;;;2.10;;
78508;SDS011;67802;50.846;7.958;2023-04-21T00:08:09;4.78;;;2.22;;
78508;SDS011;67802;50.846;7.958;2023-04-21T00:10:34;4.40;;;2.25;;
78508;SDS011;67802;50.846;7.958;2023-04-21T00:13:00;4.15;;;2.08;;
78508;SDS011;67802;50.846;7.958;2023-04-21T00:15:25;4.50;;;2.20;;
78508;SDS011;67802;50.846;7.958;2023-04-21T00:17:50;4.97;;;2.20;;
78508;SDS011;67802;50.846;7.958;2023-04-21T00:20:16;4.73;;;2.20;;
78508;SDS011;67802;50.846;7.958;2023-04-21T00:22:42;4.72;;;2.15;;
78508;SDS011;67802;50.846;7.958;2023-04-21T00:25:07;4.13;;;2.20;;
78508;SDS011;67802;50.846;7.958;2023-04-21T00:27:33;4.47;;;2.20;;
78508;SDS011;67802;50.846;7.958;2023-04-21T00:29:58;4.63;;;2.20;;
78508;SDS011;67802;50.846;7.958;2023-04-21T00:32:24;3.78;;;1.95;;
78508;SDS011;67802;50.846;7.958;2023-04-21T00:34:49;4.88;;;2.15;;
78508;SDS011;67802;50.846;7.958;2023-04-21T00:37:14;4.20;;;2.10;;
78508;SDS011;67802;50.846;7.958;2023-04-21T00:39:40;4.15;;;2.33;;
78508;SDS011;67802;50.846;7.958;2023-04-21T00:42:05;4.07;;;2.10;;
78508;SDS011;67802;50.846;7.958;2023-04-21T00:44:30;4.18;;;2.08;;
78508;SDS011;67802;50.846;7.958;2023-04-21T00:46:56;4.30;;;2.17;;
78508;SDS011;67802;50.846;7.958;2023-04-21T00:49:21;4.28;;;1.92;;
78508;SDS011;67802;50.846;7.958;2023-04-21T00:51:48;4.00;;;1.90;;
78508;SDS011;67802;50.846;7.958;2023-04-21T00:54:14;3.95;;;2.00;;
78508;SDS011;67802;50.846;7.958;2023-04-21T00:56:41;5.03;;;2.30;;
78508;SDS011;67802;50.846;7.958;2023-04-21T00:59:06;3.90;;;1.92;;
78508;SDS011;67802;50.846;7.958;2023-04-21T01:01:32;4.20;;;1.90;;
78508;SDS011;67802;50.846;7.958;2023-04-21T01:04:01;4.28;;;1.98;;
78508;SDS011;67802;50.846;7.958;2023-04-21T01:06:32;4.25;;;2.00;;
78508;SDS011;67802;50.846;7.958;2023-04-21T01:09:00;4.20;;;2.00;;
78508;SDS011;67802;50.846;7.958;2023-04-21T01:11:28;4.13;;;2.00;;
78508;SDS011;67802;50.846;7.958;2023-04-21T01:13:54;3.70;;;1.92;;
78508;SDS011;67802;50.846;7.958;2023-04-21T01:16:20;4.35;;;2.05;;
78508;SDS011;67802;50.846;7.958;2023-04-21T01:18:45;4.07;;;1.95;;
78508;SDS011;67802;50.846;7.958;2023-04-21T01:21:11;4.38;;;1.92;;
78508;SDS011;67802;50.846;7.958;2023-04-21T01:23:38;4.10;;;1.95;;
78508;SDS011;67802;50.846;7.958;2023-04-21T01:26:04;3.25;;;1.63;;
78508;SDS011;67802;50.846;7.958;2023-04-21T01:28:30;4.07;;;1.92;;
78508;SDS011;67802;50.846;7.958;2023-04-21T01:30:56;4.20;;;1.92;;
78508;SDS011;67802;50.846;7.958;2023-04-21T01:33:21;3.95;;;1.92;;
78508;SDS011;67802;50.846;7.958;2023-04-21T01:35:47;4.50;;;2.20;;
78508;SDS011;67802;50.846;7.958;2023-04-21T01:38:13;4.05;;;2.10;;
78508;SDS011;67802;50.846;7.958;2023-04-21T01:40:42;4.20;;;2.03;;
78508;SDS011;67802;50.846;7.958;2023-04-21T01:43:10;4.68;;;2.30;;
78508;SDS011;67802;50.846;7.958;2023-04-21T01:45:36;3.60;;;1.70;;
78508;SDS011;67802;50.846;7.958;2023-04-21T01:48:02;3.80;;;1.80;;
78508;SDS011;67802;50.846;7.958;2023-04-21T01:50:27;3.92;;;2.03;;
78508;SDS011;67802;50.846;7.958;2023-04-21T01:52:53;4.15;;;2.22;;
78508;SDS011;67802;50.846;7.958;2023-04-21T01:55:18;4.05;;;1.95;;
78508;SDS011;67802;50.846;7.958;2023-04-21T01:57:44;4.70;;;1.90;;
78508;SDS011;67802;50.846;7.958;2023-04-21T02:00:10;3.78;;;1.77;;
78508;SDS011;67802;50.846;7.958;2023-04-21T02:02:36;4.60;;;2.10;;
78508;SDS011;67802;50.846;7.958;2023-04-21T02:05:01;4.25;;;1.90;;
78508;SDS011;67802;50.846;7.958;2023-04-21T02:07:26;4.00;;;1.80;;
78508;SDS011;67802;50.846;7.958;2023-04-21T02:09:51;3.85;;;1.90;;
78508;SDS011;67802;50.846;7.958;2023-04-21T02:12:17;4.03;;;1.90;;
78508;SDS011;67802;50.846;7.958;2023-04-21T02:14:42;3.90;;;1.90;;
78508;SDS011;67802;50.846;7.958;2023-04-21T02:17:07;4.60;;;1.77;;
78508;SDS011;67802;50.846;7.958;2023-04-21T02:19:33;3.53;;;1.80;;
78508;SDS011;67802;50.846;7.958;2023-04-21T02:21:58;3.42;;;1.70;;
78508;SDS011;67802;50.846;7.958;2023-04-21T02:24:23;3.45;;;1.65;;
78508;SDS011;67802;50.846;7.958;2023-04-21T02:26:49;4.13;;;1.90;;
78508;SDS011;67802;50.846;7.958;2023-04-21T02:29:14;4.35;;;2.30;;
78508;SDS011;67802;50.846;7.958;2023-04-21T02:31:39;4.22;;;2.03;;
78508;SDS011;67802;50.846;7.958;2023-04-21T02:34:05;3.83;;;1.70;;
78508;SDS011;67802;50.846;7.958;2023-04-21T02:36:31;3.72;;;1.80;;
78508;SDS011;67802;50.846;7.958;2023-04-21T02:38:56;3.83;;;1.80;;
78508;SDS011;67802;50.846;7.958;2023-04-21T02:41:21;3.97;;;2.00;;
78508;SDS011;67802;50.846;7.958;2023-04-21T02:43:47;3.83;;;1.80;;
78508;SDS011;67802;50.846;7.958;2023-04-21T02:46:12;3.90;;;1.60;;
78508;SDS011;67802;50.846;7.958;2023-04-21T02:48:38;3.50;;;1.60;;
78508;SDS011;67802;50.846;7.958;2023-04-21T02:51:03;3.80;;;1.80;;
78508;SDS011;67802;50.846;7.958;2023-04-21T02:53:28;3.67;;;1.80;;
78508;SDS011;67802;50.846;7.958;2023-04-21T02:55:54;4.10;;;2.00;;
78508;SDS011;67802;50.846;7.958;2023-04-21T02:58:20;4.43;;;1.83;;
78508;SDS011;67802;50.846;7.958;2023-04-21T03:00:46;4.15;;;1.90;;
78508;SDS011;67802;50.846;7.958;2023-04-21T03:03:11;4.00;;;1.80;;
78508;SDS011;67802;50.846;7.958;2023-04-21T03:05:36;3.63;;;1.80;;
78508;SDS011;67802;50.846;7.958;2023-04-21T03:08:02;4.50;;;1.95;;
78508;SDS011;67802;50.846;7.958;2023-04-21T03:10:27;4.85;;;2.10;;
78508;SDS011;67802;50.846;7.958;2023-04-21T03:12:52;4.55;;;1.85;;
78508;SDS011;67802;50.846;7.958;2023-04-21T03:15:18;3.35;;;1.55;;
78508;SDS011;67802;50.846;7.958;2023-04-21T03:17:43;4.03;;;2.00;;
78508;SDS011;67802;50.846;7.958;2023-04-21T03:20:09;3.95;;;1.92;;
78508;SDS011;67802;50.846;7.958;2023-04-21T03:22:35;3.58;;;1.80;;
78508;SDS011;67802;50.846;7.958;2023-04-21T03:25:02;3.83;;;1.73;;
78508;SDS011;67802;50.846;7.958;2023-04-21T03:27:28;4.07;;;1.98;;
78508;SDS011;67802;50.846;7.958;2023-04-21T03:29:53;4.57;;;2.17;;
78508;SDS011;67802;50.846;7.958;2023-04-21T03:32:19;5.32;;;2.00;;
78508;SDS011;67802;50.846;7.958;2023-04-21T03:34:44;4.33;;;2.10;;
78508;SDS011;67802;50.846;7.958;2023-04-21T03:37:09;4.20;;;2.00;;
78508;SDS011;67802;50.846;7.958;2023-04-21T03:39:35;4.03;;;1.83;;
78508;SDS011;67802;50.846;7.958;2023-04-21T03:42:00;4.63;;;1.85;;
78508;SDS011;67802;50.846;7.958;2023-04-21T03:44:26;4.47;;;1.80;;
78508;SDS011;67802;50.846;7.958;2023-04-21T03:46:52;3.88;;;1.92;;
78508;SDS011;67802;50.846;7.958;2023-04-21T03:49:18;4.00;;;1.92;;
78508;SDS011;67802;50.846;7.958;2023-04-21T03:51:44;3.75;;;1.85;;
78508;SDS011;67802;50.846;7.958;2023-04-21T03:54:09;3.50;;;1.70;;
78508;SDS011;67802;50.846;7.958;2023-04-21T03:56:35;3.63;;;1.70;;
78508;SDS011;67802;50.846;7.958;2023-04-21T03:59:00;5.38;;;2.08;;
78508;SDS011;67802;50.846;7.958;2023-04-21T04:01:25;3.78;;;1.70;;
78508;SDS011;67802;50.846;7.958;2023-04-21T04:03:50;3.58;;;1.83;;
78508;SDS011;67802;50.846;7.958;2023-04-21T04:06:16;3.85;;;1.70;;
78508;SDS011;67802;50.846;7.958;2023-04-21T04:08:41;3.78;;;1.77;;
78508;SDS011;67802;50.846;7.958;2023-04-21T04:11:06;3.65;;;1.75;;
78508;SDS011;67802;50.846;7.958;2023-04-21T04:13:32;4.07;;;1.95;;
78508;SDS011;67802;50.846;7.958;2023-04-21T04:15:57;4.15;;;1.95;;
78508;SDS011;67802;50.846;7.958;2023-04-21T04:18:23;4.30;;;2.03;;
78508;SDS011;67802;50.846;7.958;2023-04-21T04:20:48;3.92;;;1.80;;
78508;SDS011;67802;50.846;7.958;2023-04-21T04:23:13;4.90;;;1.90;;
78508;SDS011;67802;50.846;7.958;2023-04-21T04:25:39;3.92;;;1.90;;
78508;SDS011;67802;50.846;7.958;2023-04-21T04:28:04;3.53;;;1.67;;
78508;SDS011;67802;50.846;7.958;2023-04-21T04:30:31;4.18;;;1.90;;
78508;SDS011;67802;50.846;7.958;2023-04-21T04:32:58;3.97;;;1.70;;
78508;SDS011;67802;50.846;7.958;2023-04-21T04:35:23;4.28;;;1.73;;
78508;SDS011;67802;50.846;7.958;2023-04-21T04:37:48;3.95;;;1.85;;
78508;SDS011;67802;50.846;7.958;2023-04-21T04:40:14;3.42;;;1.70;;
78508;SDS011;67802;50.846;7.958;2023-04-21T04:42:40;3.78;;;1.80;;
78508;SDS011;67802;50.846;7.958;2023-04-21T04:45:06;4.13;;;1.92;;
78508;SDS011;67802;50.846;7.958;2023-04-21T04:47:35;4.28;;;1.90;;
78508;SDS011;67802;50.846;7.958;2023-04-21T04:50:01;4.07;;;1.88;;
78508;SDS011;67802;50.846;7.958;2023-04-21T04:52:26;3.35;;;1.60;;
78508;SDS011;67802;50.846;7.958;2023-04-21T04:54:51;4.23;;;2.10;;
78508;SDS011;67802;50.846;7.958;2023-04-21T04:57:17;4.60;;;1.92;;
78508;SDS011;67802;50.846;7.958;2023-04-21T04:59:42;4.87;;;2.27;;
78508;SDS011;67802;50.846;7.958;2023-04-21T05:02:07;4.00;;;1.90;;
78508;SDS011;67802;50.846;7.958;2023-04-21T05:04:34;3.90;;;1.98;;
78508;SDS011;67802;50.846;7.958;2023-04-21T05:06:59;4.53;;;1.95;;
78508;SDS011;67802;50.846;7.958;2023-04-21T05:09:25;4.25;;;2.10;;
78508;SDS011;67802;50.846;7.958;2023-04-21T05:11:50;4.47;;;2.07;;
78508;SDS011;67802;50.846;7.958;2023-04-21T05:14:15;3.95;;;2.00;;
78508;SDS011;67802;50.846;7.958;2023-04-21T05:16:42;4.27;;;2.00;;
78508;SDS011;67802;50.846;7.958;2023-04-21T05:19:07;4.47;;;2.10;;
78508;SDS011;67802;50.846;7.958;2023-04-21T05:21:33;4.72;;;2.28;;
78508;SDS011;67802;50.846;7.958;2023-04-21T05:23:58;4.28;;;2.10;;
78508;SDS011;67802;50.846;7.958;2023-04-21T05:26:24;4.68;;;2.20;;
78508;SDS011;67802;50.846;7.958;2023-04-21T05:28:51;5.38;;;2.10;;
78508;SDS011;67802;50.846;7.958;2023-04-21T05:31:20;4.68;;;1.98;;
78508;SDS011;67802;50.846;7.958;2023-04-21T05:33:45;4.40;;;2.20;;
78508;SDS011;67802;50.846;7.958;2023-04-21T05:36:11;4.73;;;2.30;;
78508;SDS011;67802;50.846;7.958;2023-04-21T05:38:36;4.27;;;2.13;;
78508;SDS011;67802;50.846;7.958;2023-04-21T05:41:02;3.92;;;2.03;;
78508;SDS011;67802;50.846;7.958;2023-04-21T05:43:28;4.53;;;2.22;;
78508;SDS011;67802;50.846;7.958;2023-04-21T05:45:53;4.75;;;2.10;;
78508;SDS011;67802;50.846;7.958;2023-04-21T05:48:18;4.85;;;2.50;;
78508;SDS011;67802;50.846;7.958;2023-04-21T05:50:44;4.65;;;2.40;;
78508;SDS011;67802;50.846;7.958;2023-04-21T05:53:09;4.97;;;2.33;;
78508;SDS011;67802;50.846;7.958;2023-04-21T05:55:35;6.15;;;2.47;;
78508;SDS011;67802;50.846;7.958;2023-04-21T05:58:01;5.10;;;2.38;;
78508;SDS011;67802;50.846;7.958;2023-04-21T06:00:27;5.38;;;2.30;;
78508;SDS011;67802;50.846;7.958;2023-04-21T06:02:52;4.72;;;2.30;;
78508;SDS011;67802;50.846;7.958;2023-04-21T06:05:17;5.15;;;2.63;;
78508;SDS011;67802;50.846;7.958;2023-04-21T06:07:43;5.25;;;2.63;;
78508;SDS011;67802;50.846;7.958;2023-04-21T06:10:09;5.10;;;2.45;;
78508;SDS011;67802;50.846;7.958;2023-04-21T06:12:35;4.82;;;2.47;;
78508;SDS011;67802;50.846;7.958;2023-04-21T06:15:00;5.50;;;2.70;;
78508;SDS011;67802;50.846;7.958;2023-04-21T06:17:26;5.70;;;2.83;;
78508;SDS011;67802;50.846;7.958;2023-04-21T06:19:51;5.35;;;2.80;;
78508;SDS011;67802;50.846;7.958;2023-04-21T06:22:20;6.07;;;3.38;;
78508;SDS011;67802;50.846;7.958;2023-04-21T06:24:46;5.22;;;2.78;;
78508;SDS011;67802;50.846;7.958;2023-04-21T06:27:11;5.55;;;2.40;;
78508;SDS011;67802;50.846;7.958;2023-04-21T06:29:37;5.47;;;2.83;;
78508;SDS011;67802;50.846;7.958;2023-04-21T06:32:03;5.35;;;2.78;;
78508;SDS011;67802;50.846;7.958;2023-04-21T06:34:28;5.43;;;3.03;;
78508;SDS011;67802;50.846;7.958;2023-04-21T06:36:54;5.90;;;2.90;;
78508;SDS011;67802;50.846;7.958;2023-04-21T06:39:19;5.65;;;2.83;;
78508;SDS011;67802;50.846;7.958;2023-04-21T06:41:44;7.07;;;2.50;;
78508;SDS011;67802;50.846;7.958;2023-04-21T06:44:10;5.68;;;2.85;;
78508;SDS011;67802;50.846;7.958;2023-04-21T06:46:38;5.68;;;2.95;;
78508;SDS011;67802;50.846;7.958;2023-04-21T06:49:06;5.75;;;3.00;;
78508;SDS011;67802;50.846;7.958;2023-04-21T06:51:35;5.53;;;2.80;;
78508;SDS011;67802;50.846;7.958;2023-04-21T06:54:01;4.97;;;2.70;;
78508;SDS011;67802;50.846;7.958;2023-04-21T06:56:27;5.38;;;2.70;;
78508;SDS011;67802;50.846;7.958;2023-04-21T06:58:52;5.70;;;3.10;;
78508;SDS011;67802;50.846;7.958;2023-04-21T07:01:18;6.07;;;3.10;;
78508;SDS011;67802;50.846;7.958;2023-04-21T07:03:43;5.10;;;2.70;;
78508;SDS011;67802;50.846;7.958;2023-04-21T07:06:09;6.15;;;2.85;;
78508;SDS011;67802;50.846;7.958;2023-04-21T07:08:35;5.15;;;2.80;;
78508;SDS011;67802;50.846;7.958;2023-04-21T07:11:00;6.07;;;3.03;;
78508;SDS011;67802;50.846;7.958;2023-04-21T07:13:26;5.80;;;2.97;;
78508;SDS011;67802;50.846;7.958;2023-04-21T07:15:51;5.88;;;3.10;;
78508;SDS011;67802;50.846;7.958;2023-04-21T07:18:17;6.10;;;3.00;;
78508;SDS011;67802;50.846;7.958;2023-04-21T07:20:42;4.75;;;2.63;;
78508;SDS011;67802;50.846;7.958;2023-04-21T07:23:08;7.38;;;3.45;;
78508;SDS011;67802;50.846;7.958;2023-04-21T07:25:33;5.53;;;2.80;;
78508;SDS011;67802;50.846;7.958;2023-04-21T07:27:58;5.38;;;2.83;;
78508;SDS011;67802;50.846;7.958;2023-04-21T07:30:24;5.40;;;2.72;;
78508;SDS011;67802;50.846;7.958;2023-04-21T07:32:49;6.43;;;2.83;;
78508;SDS011;67802;50.846;7.958;2023-04-21T07:35:15;5.88;;;3.10;;
78508;SDS011;67802;50.846;7.958;2023-04-21T07:37:40;5.40;;;2.80;;
78508;SDS011;67802;50.846;7.958;2023-04-21T07:40:06;5.22;;;2.88;;
78508;SDS011;67802;50.846;7.958;2023-04-21T07:42:32;5.32;;;2.83;;
78508;SDS011;67802;50.846;7.958;2023-04-21T07:44:58;4.70;;;2.47;;
78508;SDS011;67802;50.846;7.958;2023-04-21T07:47:25;5.70;;;3.13;;
78508;SDS011;67802;50.846;7.958;2023-04-21T07:49:50;5.80;;;3.10;;
78508;SDS011;67802;50.846;7.958;2023-04-21T07:52:16;7.00;;;3.17;;
78508;SDS011;67802;50.846;7.958;2023-04-21T07:54:41;6.18;;;3.38;;
78508;SDS011;67802;50.846;7.958;2023-04-21T07:57:07;5.57;;;2.97;;
78508;SDS011;67802;50.846;7.958;2023-04-21T07:59:32;5.22;;;2.75;;
78508;SDS011;67802;50.846;7.958;2023-04-21T08:01:57;5.70;;;3.08;;
78508;SDS011;67802;50.846;7.958;2023-04-21T08:04:23;5.68;;;2.80;;
78508;SDS011;67802;50.846;7.958;2023-04-21T08:06:48;5.68;;;2.78;;
78508;SDS011;67802;50.846;7.958;2023-04-21T08:09:13;5.65;;;3.05;;
78508;SDS011;67802;50.846;7.958;2023-04-21T08:11:39;5.40;;;2.83;;
78508;SDS011;67802;50.846;7.958;2023-04-21T08:14:04;6.40;;;3.13;;
78508;SDS011;67802;50.846;7.958;2023-04-21T08:16:29;6.13;;;3.15;;
78508;SDS011;67802;50.846;7.958;2023-04-21T08:18:55;5.65;;;3.05;;
78508;SDS011;67802;50.846;7.958;2023-04-21T08:21:20;5.68;;;2.83;;
78508;SDS011;67802;50.846;7.958;2023-04-21T08:23:46;5.93;;;3.22;;
78508;SDS011;67802;50.846;7.958;2023-04-21T08:26:11;5.80;;;3.20;;
78508;SDS011;67802;50.846;7.958;2023-04-21T08:28:37;5.65;;;2.83;;
78508;SDS011;67802;50.846;7.958;2023-04-21T08:31:02;5.97;;;3.22;;
78508;SDS011;67802;50.846;7.958;2023-04-21T08:33:28;6.03;;;2.80;;
78508;SDS011;67802;50.846;7.958;2023-04-21T08:35:54;6.00;;;3.15;;
78508;SDS011;67802;50.846;7.958;2023-04-21T08:38:19;6.07;;;2.97;;
78508;SDS011;67802;50.846;7.958;2023-04-21T08:40:44;5.78;;;3.13;;
78508;SDS011;67802;50.846;7.958;2023-04-21T08:43:10;6.22;;;3.28;;
78508;SDS011;67802;50.846;7.958;2023-04-21T08:45:36;5.78;;;3.33;;
78508;SDS011;67802;50.846;7.958;2023-04-21T08:48:03;5.82;;;3.42;;
78508;SDS011;67802;50.846;7.958;2023-04-21T08:50:29;6.93;;;3.63;;
78508;SDS011;67802;50.846;7.958;2023-04-21T08:52:55;7.07;;;3.40;;
78508;SDS011;67802;50.846;7.958;2023-04-21T08:55:25;6.85;;;3.50;;
78508;SDS011;67802;50.846;7.958;2023-04-21T08:57:52;6.22;;;3.30;;
78508;SDS011;67802;50.846;7.958;2023-04-21T09:00:18;5.35;;;3.00;;
78508;SDS011;67802;50.846;7.958;2023-04-21T09:02:53;5.45;;;2.85;;
78508;SDS011;67802;50.846;7.958;2023-04-21T09:05:27;5.78;;;3.22;;
78508;SDS011;67802;50.846;7.958;2023-04-21T09:08:15;6.18;;;3.35;;
78508;SDS011;67802;50.846;7.958;2023-04-21T09:10:43;6.00;;;3.10;;
78508;SDS011;67802;50.846;7.958;2023-04-21T09:13:08;5.93;;;3.20;;
78508;SDS011;67802;50.846;7.958;2023-04-21T09:15:38;5.95;;;3.17;;
78508;SDS011;67802;50.846;7.958;2023-04-21T09:18:09;6.70;;;3.40;;
78508;SDS011;67802;50.846;7.958;2023-04-21T09:20:36;5.20;;;2.80;;
78508;SDS011;67802;50.846;7.958;2023-04-21T09:23:05;5.78;;;2.95;;
78508;SDS011;67802;50.846;7.958;2023-04-21T09:25:31;5.78;;;3.30;;
78508;SDS011;67802;50.846;7.958;2023-04-21T09:27:59;8.20;;;3.17;;
78508;SDS011;67802;50.846;7.958;2023-04-21T09:30:24;7.35;;;3.20;;
78508;SDS011;67802;50.846;7.958;2023-04-21T09:32:50;6.47;;;3.45;;
78508;SDS011;67802;50.846;7.958;2023-04-21T09:35:21;6.13;;;3.20;;
78508;SDS011;67802;50.846;7.958;2023-04-21T09:37:46;6.05;;;3.10;;
78508;SDS011;67802;50.846;7.958;2023-04-21T09:40:12;6.18;;;3.58;;
78508;SDS011;67802;50.846;7.958;2023-04-21T09:42:39;6.70;;;3.50;;
78508;SDS011;67802;50.846;7.958;2023-04-21T09:45:05;5.93;;;3.30;;
78508;SDS011;67802;50.846;7.958;2023-04-21T09:47:34;6.97;;;3.13;;
78508;SDS011;67802;50.846;7.958;2023-04-21T09:50:05;5.68;;;3.10;;
78508;SDS011;67802;50.846;7.958;2023-04-21T09:52:32;7.45;;;3.60;;
78508;SDS011;67802;50.846;7.958;2023-04-21T09:54:59;5.80;;;3.13;;
78508;SDS011;67802;50.846;7.958;2023-04-21T09:57:28;6.30;;;3.30;;
78508;SDS011;67802;50.846;7.958;2023-04-21T10:00:03;6.75;;;3.47;;
78508;SDS011;67802;50.846;7.958;2023-04-21T10:02:33;7.28;;;3.58;;
78508;SDS011;67802;50.846;7.958;2023-04-21T10:05:00;5.95;;;3.30;;
78508;SDS011;67802;50.846;7.958;2023-04-21T10:07:27;6.15;;;3.55;;
78508;SDS011;67802;50.846;7.958;2023-04-21T10:09:55;6.07;;;3.50;;
78508;SDS011;67802;50.846;7.958;2023-04-21T10:12:23;6.65;;;3.63;;
78508;SDS011;67802;50.846;7.958;2023-04-21T10:14:53;7.28;;;3.70;;
78508;SDS011;67802;50.846;7.958;2023-04-21T10:17:24;6.72;;;3.58;;
78508;SDS011;67802;50.846;7.958;2023-04-21T10:19:51;8.38;;;3.97;;
78508;SDS011;67802;50.846;7.958;2023-04-21T10:24:53;7.63;;;3.60;;
78508;SDS011;67802;50.846;7.958;2023-04-21T10:30:21;8.05;;;3.67;;
78508;SDS011;67802;50.846;7.958;2023-04-21T10:33:00;8.20;;;3.67;;
78508;SDS011;67802;50.846;7.958;2023-04-21T10:36:14;6.03;;;3.60;;
78508;SDS011;67802;50.846;7.958;2023-04-21T10:44:14;6.85;;;4.15;;
78508;SDS011;67802;50.846;7.958;2023-04-21T10:46:44;7.53;;;3.90;;
78508;SDS011;67802;50.846;7.958;2023-04-21T10:49:10;8.05;;;4.05;;
78508;SDS011;67802;50.846;7.958;2023-04-21T10:54:21;7.47;;;4.00;;
78508;SDS011;67802;50.846;7.958;2023-04-21T10:56:50;7.68;;;3.95;;
78508;SDS011;67802;50.846;7.958;2023-04-21T10:59:17;7.38;;;4.45;;
78508;SDS011;67802;50.846;7.958;2023-04-21T11:01:43;7.18;;;4.07;;
78508;SDS011;67802;50.846;7.958;2023-04-21T11:04:12;7.88;;;4.00;;
78508;SDS011;67802;50.846;7.958;2023-04-21T11:06:38;7.25;;;3.97;;
78508;SDS011;67802;50.846;7.958;2023-04-21T11:09:04;7.50;;;4.50;;
78508;SDS011;67802;50.846;7.958;2023-04-21T11:11:29;6.87;;;4.20;;
78508;SDS011;67802;50.846;7.958;2023-04-21T11:13:54;8.17;;;4.00;;
78508;SDS011;67802;50.846;7.958;2023-04-21T11:16:24;8.05;;;4.22;;
78508;SDS011;67802;50.846;7.958;2023-04-21T11:18:49;7.22;;;3.85;;
78508;SDS011;67802;50.846;7.958;2023-04-21T11:21:16;7.65;;;4.10;;
78508;SDS011;67802;50.846;7.958;2023-04-21T11:23:52;6.90;;;3.85;;
78508;SDS011;67802;50.846;7.958;2023-04-21T11:26:52;8.43;;;4.30;;
78508;SDS011;67802;50.846;7.958;2023-04-21T11:29:10;6.90;;;3.88;;
78508;SDS011;67802;50.846;7.958;2023-04-21T11:31:36;8.00;;;4.43;;
78508;SDS011;67802;50.846;7.958;2023-04-21T11:34:04;7.07;;;3.90;;
78508;SDS011;67802;50.846;7.958;2023-04-21T11:36:34;7.47;;;4.25;;
78508;SDS011;67802;50.846;7.958;2023-04-21T11:39:06;7.53;;;4.13;;
78508;SDS011;67802;50.846;7.958;2023-04-21T11:41:33;6.88;;;4.22;;
78508;SDS011;67802;50.846;7.958;2023-04-21T11:44:00;7.57;;;4.30;;
78508;SDS011;67802;50.846;7.958;2023-04-21T11:46:26;7.90;;;4.07;;
78508;SDS011;67802;50.846;7.958;2023-04-21T11:48:59;8.48;;;4.22;;
78508;SDS011;67802;50.846;7.958;2023-04-21T11:51:34;7.38;;;4.22;;
78508;SDS011;67802;50.846;7.958;2023-04-21T11:54:01;7.00;;;4.28;;
78508;SDS011;67802;50.846;7.958;2023-04-21T11:56:28;8.43;;;4.00;;
78508;SDS011;67802;50.846;7.958;2023-04-21T11:58:54;7.45;;;3.88;;
78508;SDS011;67802;50.846;7.958;2023-04-21T12:01:20;7.55;;;4.28;;
78508;SDS011;67802;50.846;7.958;2023-04-21T12:03:49;8.57;;;4.50;;
78508;SDS011;67802;50.846;7.958;2023-04-21T12:06:22;7.10;;;4.20;;
78508;SDS011;67802;50.846;7.958;2023-04-21T12:08:55;5.90;;;3.55;;
78508;SDS011;67802;50.846;7.958;2023-04-21T12:11:24;6.60;;;3.83;;
78508;SDS011;67802;50.846;7.958;2023-04-21T12:13:51;7.10;;;4.18;;
78508;SDS011;67802;50.846;7.958;2023-04-21T12:16:17;7.28;;;4.22;;
78508;SDS011;67802;50.846;7.958;2023-04-21T12:18:42;7.18;;;4.15;;
78508;SDS011;67802;50.846;7.958;2023-04-21T12:21:08;7.35;;;3.97;;
78508;SDS011;67802;50.846;7.958;2023-04-21T12:23:33;7.00;;;4.45;;
78508;SDS011;67802;50.846;7.958;2023-04-21T12:25:59;8.20;;;4.22;;
78508;SDS011;67802;50.846;7.958;2023-04-21T12:28:25;7.82;;;4.13;;
78508;SDS011;67802;50.846;7.958;2023-04-21T12:30:50;6.85;;;3.95;;
78508;SDS011;67802;50.846;7.958;2023-04-21T12:33:16;7.60;;;4.00;;
78508;SDS011;67802;50.846;7.958;2023-04-21T12:35:41;7.97;;;4.10;;
78508;SDS011;67802;50.846;7.958;2023-04-21T12:38:07;7.20;;;3.85;;
78508;SDS011;67802;50.846;7.958;2023-04-21T12:40:32;7.28;;;4.28;;
78508;SDS011;67802;50.846;7.958;2023-04-21T12:42:57;7.50;;;4.20;;
78508;SDS011;67802;50.846;7.958;2023-04-21T12:45:23;7.32;;;4.10;;
78508;SDS011;67802;50.846;7.958;2023-04-21T12:47:48;7.47;;;4.30;;
78508;SDS011;67802;50.846;7.958;2023-04-21T12:50:14;8.00;;;4.38;;
78508;SDS011;67802;50.846;7.958;2023-04-21T12:52:40;8.35;;;4.32;;
78508;SDS011;67802;50.846;7.958;2023-04-21T12:55:05;7.70;;;4.10;;
78508;SDS011;67802;50.846;7.958;2023-04-21T12:57:30;6.75;;;4.05;;
78508;SDS011;67802;50.846;7.958;2023-04-21T12:59:56;7.63;;;4.40;;
78508;SDS011;67802;50.846;7.958;2023-04-21T13:02:22;7.57;;;4.40;;
78508;SDS011;67802;50.846;7.958;2023-04-21T13:04:47;8.25;;;4.60;;
78508;SDS011;67802;50.846;7.958;2023-04-21T13:07:12;6.85;;;4.03;;
78508;SDS011;67802;50.846;7.958;2023-04-21T13:09:40;7.82;;;4.15;;
78508;SDS011;67802;50.846;7.958;2023-04-21T13:12:05;7.25;;;4.15;;
78508;SDS011;67802;50.846;7.958;2023-04-21T13:14:30;6.78;;;4.00;;
78508;SDS011;67802;50.846;7.958;2023-04-21T13:16:56;7.28;;;4.32;;
78508;SDS011;67802;50.846;7.958;2023-04-21T13:19:21;7.63;;;4.40;;
78508;SDS011;67802;50.846;7.958;2023-04-21T13:21:47;7.10;;;4.22;;
78508;SDS011;67802;50.846;7.958;2023-04-21T13:24:12;7.28;;;3.97;;
78508;SDS011;67802;50.846;7.958;2023-04-21T13:26:38;7.20;;;4.30;;
78508;SDS011;67802;50.846;7.958;2023-04-21T13:29:03;7.25;;;3.95;;
78508;SDS011;67802;50.846;7.958;2023-04-21T13:31:29;7.45;;;4.30;;
78508;SDS011;67802;50.846;7.958;2023-04-21T13:33:54;6.85;;;3.80;;
78508;SDS011;67802;50.846;7.958;2023-04-21T13:36:20;6.45;;;4.03;;
78508;SDS011;67802;50.846;7.958;2023-04-21T13:38:46;7.70;;;4.05;;
78508;SDS011;67802;50.846;7.958;2023-04-21T13:41:12;7.15;;;4.20;;
78508;SDS011;67802;50.846;7.958;2023-04-21T13:43:37;6.55;;;3.88;;
78508;SDS011;67802;50.846;7.958;2023-04-21T13:46:03;6.55;;;4.25;;
78508;SDS011;67802;50.846;7.958;2023-04-21T13:48:28;6.57;;;3.75;;
78508;SDS011;67802;50.846;7.958;2023-04-21T13:50:54;7.65;;;4.28;;
78508;SDS011;67802;50.846;7.958;2023-04-21T13:53:19;6.70;;;3.83;;
78508;SDS011;67802;50.846;7.958;2023-04-21T13:55:45;7.05;;;4.30;;
78508;SDS011;67802;50.846;7.958;2023-04-21T13:58:12;7.75;;;3.72;;
78508;SDS011;67802;50.846;7.958;2023-04-21T14:00:39;6.90;;;4.13;;
78508;SDS011;67802;50.846;7.958;2023-04-21T14:03:05;6.57;;;3.85;;
78508;SDS011;67802;50.846;7.958;2023-04-21T14:05:30;7.00;;;4.03;;
78508;SDS011;67802;50.846;7.958;2023-04-21T14:07:56;7.68;;;4.38;;
78508;SDS011;67802;50.846;7.958;2023-04-21T14:10:21;7.10;;;4.00;;
78508;SDS011;67802;50.846;7.958;2023-04-21T14:12:47;7.20;;;3.95;;
78508;SDS011;67802;50.846;7.958;2023-04-21T14:15:13;7.90;;;4.28;;
78508;SDS011;67802;50.846;7.958;2023-04-21T14:17:38;6.50;;;4.07;;
78508;SDS011;67802;50.846;7.958;2023-04-21T14:20:04;7.10;;;4.20;;
78508;SDS011;67802;50.846;7.958;2023-04-21T14:22:31;7.97;;;4.00;;
78508;SDS011;67802;50.846;7.958;2023-04-21T14:24:57;7.00;;;4.03;;
78508;SDS011;67802;50.846;7.958;2023-04-21T14:27:23;7.23;;;4.23;;
78508;SDS011;67802;50.846;7.958;2023-04-21T14:29:48;7.28;;;4.20;;
78508;SDS011;67802;50.846;7.958;2023-04-21T14:32:13;7.50;;;3.90;;
78508;SDS011;67802;50.846;7.958;2023-04-21T14:34:39;7.32;;;3.80;;
78508;SDS011;67802;50.846;7.958;2023-04-21T14:37:04;7.35;;;4.07;;
78508;SDS011;67802;50.846;7.958;2023-04-21T14:39:29;7.00;;;4.20;;
78508;SDS011;67802;50.846;7.958;2023-04-21T14:41:56;6.65;;;4.22;;
78508;SDS011;67802;50.846;7.958;2023-04-21T14:44:21;6.78;;;4.13;;
78508;SDS011;67802;50.846;7.958;2023-04-21T14:46:46;6.38;;;3.95;;
78508;SDS011;67802;50.846;7.958;2023-04-21T14:49:12;7.25;;;4.10;;
78508;SDS011;67802;50.846;7.958;2023-04-21T14:51:37;7.38;;;3.75;;
78508;SDS011;67802;50.846;7.958;2023-04-21T14:54:05;7.07;;;3.95;;
78508;SDS011;67802;50.846;7.958;2023-04-21T14:56:31;7.25;;;4.10;;